sensor_id;sensor_type;location;lat;lon;timestamp;temperature;humidity
5492;DHT22;2768;53.540;10.224;2024-03-02T00:01:59;10.50;51.80
5492;DHT22;2768;53.540;10.224;2024-03-02T00:07:55;10.60;59.80
5492;DHT22;2768;53.540;10.224;2024-03-02T00:13:48;10.50;58.60
5492;DHT22;2768;53.540;10.224;2024-03-02T00:19:42;10.50;65.40
5492;DHT22;2768;53.540;10.224;2024-03-02T00:25:41;10.40;67.50
5492;DHT22;2768;53.540;10.224;2024-03-02T00:31:35;10.40;65.40
5492;DHT22;2768;53.540;10.224;2024-03-02T00:37:29;10.40;77.80
5492;DHT22;2768;53.540;10.224;2024-03-02T00:49:59;10.30;90.30
5492;DHT22;2768;53.540;10.224;2024-03-02T00:55:58;10.30;95.30
5492;DHT22;2768;53.540;10.224;2024-03-02T01:01:52;10.10;94.80
5492;DHT22;2768;53.540;10.224;2024-03-02T01:07:47;10.20;99.90
5492;DHT22;2768;53.540;10.224;2024-03-02T01:13:41;10.30;99.90
5492;DHT22;2768;53.540;10.224;2024-03-02T01:19:34;10.20;99.90
5492;DHT22;2768;53.540;10.224;2024-03-02T01:25:28;10.10;99.90
5492;DHT22;2768;53.540;10.224;2024-03-02T01:31:22;10.20;99.90
5492;DHT22;2768;53.540;10.224;2024-03-02T01:37:15;10.20;99.90
5492;DHT22;2768;53.540;10.224;2024-03-02T01:43:10;10.00;99.90
5492;DHT22;2768;53.540;10.224;2024-03-02T01:49:03;9.90;99.90
5492;DHT22;2768;53.540;10.224;2024-03-02T01:54:57;10.00;99.90
5492;DHT22;2768;53.540;10.224;2024-03-02T02:00:51;10.00;99.90
5492;DHT22;2768;53.540;10.224;2024-03-02T02:06:45;9.90;99.90
5492;DHT22;2768;53.540;10.224;2024-03-02T02:12:38;10.00;99.90
5492;DHT22;2768;53.540;10.224;2024-03-02T02:18:33;9.90;99.90
5492;DHT22;2768;53.540;10.224;2024-03-02T02:24:27;9.80;99.90
5492;DHT22;2768;53.540;10.224;2024-03-02T02:30:21;9.80;99.90
5492;DHT22;2768;53.540;10.224;2024-03-02T02:36:15;9.90;99.90
5492;DHT22;2768;53.540;10.224;2024-03-02T02:42:10;9.80;99.90
5492;DHT22;2768;53.540;10.224;2024-03-02T02:48:03;9.80;99.90
5492;DHT22;2768;53.540;10.224;2024-03-02T02:53:57;9.70;99.90
5492;DHT22;2768;53.540;10.224;2024-03-02T02:59:52;9.80;99.90
5492;DHT22;2768;53.540;10.224;2024-03-02T03:05:45;9.60;99.90
5492;DHT22;2768;53.540;10.224;2024-03-02T03:11:38;9.60;99.90
5492;DHT22;2768;53.540;10.224;2024-03-02T03:17:33;9.70;99.90
5492;DHT22;2768;53.540;10.224;2024-03-02T03:23:27;9.50;99.90
5492;DHT22;2768;53.540;10.224;2024-03-02T03:29:20;9.50;99.90
5492;DHT22;2768;53.540;10.224;2024-03-02T03:35:15;9.50;99.90
5492;DHT22;2768;53.540;10.224;2024-03-02T03:41:08;9.50;99.90
5492;DHT22;2768;53.540;10.224;2024-03-02T03:47:01;9.50;99.90
5492;DHT22;2768;53.540;10.224;2024-03-02T03:52:56;9.40;99.90
5492;DHT22;2768;53.540;10.224;2024-03-02T03:58:49;9.40;99.90
5492;DHT22;2768;53.540;10.224;2024-03-02T04:04:43;9.30;99.90
5492;DHT22;2768;53.540;10.224;2024-03-02T04:10:37;9.30;99.90
5492;DHT22;2768;53.540;10.224;2024-03-02T04:16:32;9.50;99.90
5492;DHT22;2768;53.540;10.224;2024-03-02T04:22:26;9.70;99.90
5492;DHT22;2768;53.540;10.224;2024-03-02T04:28:21;9.70;99.90
5492;DHT22;2768;53.540;10.224;2024-03-02T04:34:14;9.60;99.90
5492;DHT22;2768;53.540;10.224;2024-03-02T04:40:08;9.40;99.90
5492;DHT22;2768;53.540;10.224;2024-03-02T04:46:04;9.40;99.90
5492;DHT22;2768;53.540;10.224;2024-03-02T04:51:58;9.40;99.90
5492;DHT22;2768;53.540;10.224;2024-03-02T04:57:51;9.60;99.90
5492;DHT22;2768;53.540;10.224;2024-03-02T05:03:48;9.70;99.90
5492;DHT22;2768;53.540;10.224;2024-03-02T05:09:42;9.60;99.90
5492;DHT22;2768;53.540;10.224;2024-03-02T05:15:35;9.60;99.90
5492;DHT22;2768;53.540;10.224;2024-03-02T05:21:29;9.50;99.90
5492;DHT22;2768;53.540;10.224;2024-03-02T05:27:23;9.40;99.90
5492;DHT22;2768;53.540;10.224;2024-03-02T05:33:16;9.40;99.90
5492;DHT22;2768;53.540;10.224;2024-03-02T05:39:11;9.20;99.90
5492;DHT22;2768;53.540;10.224;2024-03-02T05:45:05;9.30;99.90
5492;DHT22;2768;53.540;10.224;2024-03-02T05:50:58;9.40;99.90
5492;DHT22;2768;53.540;10.224;2024-03-02T05:56:53;9.30;99.90
5492;DHT22;2768;53.540;10.224;2024-03-02T06:02:46;9.20;99.90
5492;DHT22;2768;53.540;10.224;2024-03-02T06:08:40;9.30;99.90
5492;DHT22;2768;53.540;10.224;2024-03-02T06:14:34;9.30;99.90
5492;DHT22;2768;53.540;10.224;2024-03-02T06:20:27;9.50;99.90
5492;DHT22;2768;53.540;10.224;2024-03-02T06:26:27;9.40;99.90
5492;DHT22;2768;53.540;10.224;2024-03-02T06:32:23;9.40;99.90
5492;DHT22;2768;53.540;10.224;2024-03-02T06:38:17;9.40;99.90
5492;DHT22;2768;53.540;10.224;2024-03-02T06:44:11;9.50;99.90
5492;DHT22;2768;53.540;10.224;2024-03-02T06:50:06;9.50;99.90
5492;DHT22;2768;53.540;10.224;2024-03-02T06:55:59;9.50;99.90
5492;DHT22;2768;53.540;10.224;2024-03-02T07:01:53;9.50;99.90
5492;DHT22;2768;53.540;10.224;2024-03-02T07:07:47;9.50;99.90
5492;DHT22;2768;53.540;10.224;2024-03-02T07:13:41;9.50;99.90
5492;DHT22;2768;53.540;10.224;2024-03-02T07:19:34;9.70;99.90
5492;DHT22;2768;53.540;10.224;2024-03-02T07:25:28;9.70;99.90
5492;DHT22;2768;53.540;10.224;2024-03-02T07:31:24;9.80;99.90
5492;DHT22;2768;53.540;10.224;2024-03-02T07:37:17;9.80;99.90
5492;DHT22;2768;53.540;10.224;2024-03-02T07:43:13;9.60;96.90
5492;DHT22;2768;53.540;10.224;2024-03-02T07:49:06;9.70;91.00
5492;DHT22;2768;53.540;10.224;2024-03-02T07:54:59;9.90;93.30
5492;DHT22;2768;53.540;10.224;2024-03-02T08:00:54;9.70;53.80
5492;DHT22;2768;53.540;10.224;2024-03-02T08:06:47;9.80;38.00
5492;DHT22;2768;53.540;10.224;2024-03-02T08:12:41;9.90;25.40
5492;DHT22;2768;53.540;10.224;2024-03-02T08:18:35;10.00;18.00
5492;DHT22;2768;53.540;10.224;2024-03-02T08:24:29;10.10;3.30
5492;DHT22;2768;53.540;10.224;2024-03-02T08:30:22;10.10;1.00
5492;DHT22;2768;53.540;10.224;2024-03-02T08:36:17;10.00;1.00
5492;DHT22;2768;53.540;10.224;2024-03-02T08:42:10;10.10;1.00
5492;DHT22;2768;53.540;10.224;2024-03-02T08:48:04;10.10;1.00
5492;DHT22;2768;53.540;10.224;2024-03-02T08:53:59;10.00;1.00
5492;DHT22;2768;53.540;10.224;2024-03-02T08:59:53;10.00;1.00
5492;DHT22;2768;53.540;10.224;2024-03-02T09:05:46;10.10;1.00
5492;DHT22;2768;53.540;10.224;2024-03-02T09:11:41;10.30;1.00
5492;DHT22;2768;53.540;10.224;2024-03-02T09:17:34;10.40;1.00
5492;DHT22;2768;53.540;10.224;2024-03-02T09:23:27;10.50;1.00
5492;DHT22;2768;53.540;10.224;2024-03-02T09:29:21;10.60;1.00
5492;DHT22;2768;53.540;10.224;2024-03-02T09:35:15;10.70;1.00
5492;DHT22;2768;53.540;10.224;2024-03-02T09:41:08;10.90;1.00
5492;DHT22;2768;53.540;10.224;2024-03-02T09:47:03;11.00;1.00
5492;DHT22;2768;53.540;10.224;2024-03-02T09:52:57;11.30;1.00
5492;DHT22;2768;53.540;10.224;2024-03-02T09:58:51;11.70;1.00
5492;DHT22;2768;53.540;10.224;2024-03-02T10:04:47;11.80;1.00
5492;DHT22;2768;53.540;10.224;2024-03-02T10:10:41;12.20;1.00
5492;DHT22;2768;53.540;10.224;2024-03-02T10:16:36;12.80;1.00
5492;DHT22;2768;53.540;10.224;2024-03-02T10:22:31;13.30;1.00
5492;DHT22;2768;53.540;10.224;2024-03-02T10:28:25;13.40;1.00
5492;DHT22;2768;53.540;10.224;2024-03-02T10:34:21;13.50;1.00
5492;DHT22;2768;53.540;10.224;2024-03-02T10:40:16;14.00;1.00
5492;DHT22;2768;53.540;10.224;2024-03-02T10:46:10;14.00;1.00
5492;DHT22;2768;53.540;10.224;2024-03-02T10:52:04;13.90;1.00
5492;DHT22;2768;53.540;10.224;2024-03-02T10:58:00;14.00;99.90
5492;DHT22;2768;53.540;10.224;2024-03-02T11:03:58;13.80;99.90
5492;DHT22;2768;53.540;10.224;2024-03-02T11:09:54;13.70;99.90
5492;DHT22;2768;53.540;10.224;2024-03-02T11:15:55;13.40;99.90
5492;DHT22;2768;53.540;10.224;2024-03-02T11:21:49;13.90;99.90
5492;DHT22;2768;53.540;10.224;2024-03-02T11:28:04;14.20;99.90
5492;DHT22;2768;53.540;10.224;2024-03-02T11:34:17;14.20;99.90
5492;DHT22;2768;53.540;10.224;2024-03-02T11:40:11;14.10;99.90
5492;DHT22;2768;53.540;10.224;2024-03-02T11:46:05;13.90;99.90
5492;DHT22;2768;53.540;10.224;2024-03-02T11:52:02;13.90;99.90
5492;DHT22;2768;53.540;10.224;2024-03-02T11:57:56;13.60;99.90
5492;DHT22;2768;53.540;10.224;2024-03-02T12:03:49;13.40;99.90
5492;DHT22;2768;53.540;10.224;2024-03-02T12:09:45;13.00;99.90
5492;DHT22;2768;53.540;10.224;2024-03-02T12:15:39;13.00;99.90
5492;DHT22;2768;53.540;10.224;2024-03-02T12:21:32;12.90;99.90
5492;DHT22;2768;53.540;10.224;2024-03-02T12:27:27;12.80;99.90
5492;DHT22;2768;53.540;10.224;2024-03-02T12:33:20;12.80;99.90
5492;DHT22;2768;53.540;10.224;2024-03-02T12:39:14;12.90;99.90
5492;DHT22;2768;53.540;10.224;2024-03-02T12:45:09;13.00;99.90
5492;DHT22;2768;53.540;10.224;2024-03-02T12:51:03;13.00;99.90
5492;DHT22;2768;53.540;10.224;2024-03-02T12:56:57;13.00;99.90
5492;DHT22;2768;53.540;10.224;2024-03-02T13:02:51;13.00;99.90
5492;DHT22;2768;53.540;10.224;2024-03-02T13:08:45;13.10;99.90
5492;DHT22;2768;53.540;10.224;2024-03-02T13:14:39;13.20;99.90
5492;DHT22;2768;53.540;10.224;2024-03-02T13:20:33;13.50;99.90
5492;DHT22;2768;53.540;10.224;2024-03-02T13:26:27;13.40;99.90
5492;DHT22;2768;53.540;10.224;2024-03-02T13:32:21;13.40;99.90
5492;DHT22;2768;53.540;10.224;2024-03-02T13:38:17;13.30;99.90
5492;DHT22;2768;53.540;10.224;2024-03-02T13:44:11;13.20;99.90
5492;DHT22;2768;53.540;10.224;2024-03-02T13:50:06;13.10;99.90
5492;DHT22;2768;53.540;10.224;2024-03-02T13:56:00;13.10;99.90
5492;DHT22;2768;53.540;10.224;2024-03-02T14:01:54;13.10;99.90
5492;DHT22;2768;53.540;10.224;2024-03-02T14:07:47;13.00;99.90
5492;DHT22;2768;53.540;10.224;2024-03-02T14:13:42;13.00;99.90
5492;DHT22;2768;53.540;10.224;2024-03-02T14:19:40;13.40;99.90
5492;DHT22;2768;53.540;10.224;2024-03-02T14:25:33;14.30;99.90
5492;DHT22;2768;53.540;10.224;2024-03-02T14:31:27;14.90;99.90
5492;DHT22;2768;53.540;10.224;2024-03-02T14:37:20;15.50;99.90
5492;DHT22;2768;53.540;10.224;2024-03-02T14:43:14;15.90;99.90
5492;DHT22;2768;53.540;10.224;2024-03-02T14:49:08;16.90;99.90
5492;DHT22;2768;53.540;10.224;2024-03-02T14:55:03;17.20;99.90
5492;DHT22;2768;53.540;10.224;2024-03-02T15:00:59;17.50;99.90
5492;DHT22;2768;53.540;10.224;2024-03-02T15:06:54;16.50;99.90
5492;DHT22;2768;53.540;10.224;2024-03-02T15:12:47;16.10;99.90
5492;DHT22;2768;53.540;10.224;2024-03-02T15:18:42;15.90;99.90
5492;DHT22;2768;53.540;10.224;2024-03-02T15:24:36;15.60;99.90
5492;DHT22;2768;53.540;10.224;2024-03-02T15:30:29;15.40;99.90
5492;DHT22;2768;53.540;10.224;2024-03-02T15:36:23;14.90;99.90
5492;DHT22;2768;53.540;10.224;2024-03-02T15:42:18;14.90;99.90
5492;DHT22;2768;53.540;10.224;2024-03-02T15:48:11;14.70;99.90
5492;DHT22;2768;53.540;10.224;2024-03-02T15:54:06;14.40;99.90
5492;DHT22;2768;53.540;10.224;2024-03-02T16:00:01;14.10;99.90
5492;DHT22;2768;53.540;10.224;2024-03-02T16:06:02;14.00;99.90
5492;DHT22;2768;53.540;10.224;2024-03-02T16:11:55;13.80;99.90
5492;DHT22;2768;53.540;10.224;2024-03-02T16:17:50;13.80;99.90
5492;DHT22;2768;53.540;10.224;2024-03-02T16:23:43;13.60;99.90
5492;DHT22;2768;53.540;10.224;2024-03-02T16:29:37;13.60;99.90
5492;DHT22;2768;53.540;10.224;2024-03-02T16:35:31;13.60;99.90
5492;DHT22;2768;53.540;10.224;2024-03-02T16:41:24;13.50;99.90
5492;DHT22;2768;53.540;10.224;2024-03-02T16:47:22;13.40;99.90
5492;DHT22;2768;53.540;10.224;2024-03-02T16:53:16;13.20;99.90
5492;DHT22;2768;53.540;10.224;2024-03-02T16:59:10;13.20;99.90
5492;DHT22;2768;53.540;10.224;2024-03-02T17:05:03;13.00;99.90
5492;DHT22;2768;53.540;10.224;2024-03-02T17:10:58;13.00;99.90
5492;DHT22;2768;53.540;10.224;2024-03-02T17:16:52;12.90;99.90
5492;DHT22;2768;53.540;10.224;2024-03-02T17:22:45;12.70;99.90
5492;DHT22;2768;53.540;10.224;2024-03-02T17:28:40;12.60;99.90
5492;DHT22;2768;53.540;10.224;2024-03-02T17:34:33;12.60;99.90
5492;DHT22;2768;53.540;10.224;2024-03-02T17:40:26;12.60;99.90
5492;DHT22;2768;53.540;10.224;2024-03-02T17:46:21;12.50;1.00
5492;DHT22;2768;53.540;10.224;2024-03-02T17:52:14;12.50;1.00
5492;DHT22;2768;53.540;10.224;2024-03-02T17:58:08;12.40;1.00
5492;DHT22;2768;53.540;10.224;2024-03-02T18:04:02;12.40;1.00
5492;DHT22;2768;53.540;10.224;2024-03-02T18:10:01;12.30;1.00
5492;DHT22;2768;53.540;10.224;2024-03-02T18:15:54;12.20;1.00
5492;DHT22;2768;53.540;10.224;2024-03-02T18:21:49;12.20;1.00
5492;DHT22;2768;53.540;10.224;2024-03-02T18:27:42;12.20;1.00
5492;DHT22;2768;53.540;10.224;2024-03-02T18:33:36;12.10;1.00
5492;DHT22;2768;53.540;10.224;2024-03-02T18:39:30;12.00;1.00
5492;DHT22;2768;53.540;10.224;2024-03-02T18:45:24;12.00;1.00
5492;DHT22;2768;53.540;10.224;2024-03-02T18:51:20;11.90;1.00
5492;DHT22;2768;53.540;10.224;2024-03-02T18:57:16;11.80;1.00
5492;DHT22;2768;53.540;10.224;2024-03-02T19:03:09;11.70;1.00
5492;DHT22;2768;53.540;10.224;2024-03-02T19:09:03;11.70;1.00
5492;DHT22;2768;53.540;10.224;2024-03-02T19:14:57;11.70;1.00
5492;DHT22;2768;53.540;10.224;2024-03-02T19:20:53;11.70;1.00
5492;DHT22;2768;53.540;10.224;2024-03-02T19:26:46;11.70;1.00
5492;DHT22;2768;53.540;10.224;2024-03-02T19:32:41;11.60;1.00
5492;DHT22;2768;53.540;10.224;2024-03-02T19:38:35;11.60;1.00
5492;DHT22;2768;53.540;10.224;2024-03-02T19:44:28;11.50;1.00
5492;DHT22;2768;53.540;10.224;2024-03-02T19:50:26;11.50;1.00
5492;DHT22;2768;53.540;10.224;2024-03-02T19:56:19;11.40;1.00
5492;DHT22;2768;53.540;10.224;2024-03-02T20:02:13;11.50;1.00
5492;DHT22;2768;53.540;10.224;2024-03-02T20:08:10;11.40;1.00
5492;DHT22;2768;53.540;10.224;2024-03-02T20:14:04;11.20;1.00
5492;DHT22;2768;53.540;10.224;2024-03-02T20:19:58;11.30;1.00
5492;DHT22;2768;53.540;10.224;2024-03-02T20:25:52;11.20;1.00
5492;DHT22;2768;53.540;10.224;2024-03-02T20:31:46;11.20;1.00
5492;DHT22;2768;53.540;10.224;2024-03-02T20:37:40;11.20;1.00
5492;DHT22;2768;53.540;10.224;2024-03-02T20:43:36;11.10;1.00
5492;DHT22;2768;53.540;10.224;2024-03-02T20:49:29;11.10;1.00
5492;DHT22;2768;53.540;10.224;2024-03-02T20:55:23;11.10;1.00
5492;DHT22;2768;53.540;10.224;2024-03-02T21:01:18;11.10;1.00
5492;DHT22;2768;53.540;10.224;2024-03-02T21:07:11;11.10;1.00
5492;DHT22;2768;53.540;10.224;2024-03-02T21:13:05;11.00;1.00
5492;DHT22;2768;53.540;10.224;2024-03-02T21:19:00;11.00;1.00
5492;DHT22;2768;53.540;10.224;2024-03-02T21:24:53;11.00;1.00
5492;DHT22;2768;53.540;10.224;2024-03-02T21:30:53;11.00;1.00
5492;DHT22;2768;53.540;10.224;2024-03-02T21:36:47;11.00;1.00
5492;DHT22;2768;53.540;10.224;2024-03-02T21:42:41;10.90;1.00
5492;DHT22;2768;53.540;10.224;2024-03-02T21:48:35;10.80;1.00
5492;DHT22;2768;53.540;10.224;2024-03-02T21:54:30;10.80;1.00
5492;DHT22;2768;53.540;10.224;2024-03-02T22:00:23;10.70;1.00
5492;DHT22;2768;53.540;10.224;2024-03-02T22:06:16;10.70;1.00
5492;DHT22;2768;53.540;10.224;2024-03-02T22:12:11;10.70;1.00
5492;DHT22;2768;53.540;10.224;2024-03-02T22:18:05;10.80;1.00
5492;DHT22;2768;53.540;10.224;2024-03-02T22:23:58;10.70;1.00
5492;DHT22;2768;53.540;10.224;2024-03-02T22:29:53;10.70;1.00
5492;DHT22;2768;53.540;10.224;2024-03-02T22:35:47;10.70;1.00
5492;DHT22;2768;53.540;10.224;2024-03-02T22:41:40;10.60;8.30
5492;DHT22;2768;53.540;10.224;2024-03-02T22:47:35;10.60;8.60
5492;DHT22;2768;53.540;10.224;2024-03-02T22:53:28;10.60;4.90
5492;DHT22;2768;53.540;10.224;2024-03-02T22:59:22;10.50;11.80
5492;DHT22;2768;53.540;10.224;2024-03-02T23:05:17;10.50;22.40
5492;DHT22;2768;53.540;10.224;2024-03-02T23:11:11;10.50;19.90
5492;DHT22;2768;53.540;10.224;2024-03-02T23:17:04;10.50;23.60
5492;DHT22;2768;53.540;10.224;2024-03-02T23:22:59;10.40;22.00
5492;DHT22;2768;53.540;10.224;2024-03-02T23:28:56;10.50;25.30
5492;DHT22;2768;53.540;10.224;2024-03-02T23:34:49;10.50;27.90
5492;DHT22;2768;53.540;10.224;2024-03-02T23:40:44;10.30;23.00
5492;DHT22;2768;53.540;10.224;2024-03-02T23:47:00;10.30;20.60
5492;DHT22;2768;53.540;10.224;2024-03-02T23:52:53;10.20;25.50
5492;DHT22;2768;53.540;10.224;2024-03-02T23:58:48;10.20;25.50
